sensor_id;sensor_type;location;lat;lon;timestamp;P1;durP1;ratioP1;P2;durP2;ratioP2
7375;SDS011;3728;42.266;24.944;2022-07-22T00:00:28;9.63;;;4.00;;
7375;SDS011;3728;42.266;24.944;2022-07-22T00:02:55;7.77;;;3.70;;
7375;SDS011;3728;42.266;24.944;2022-07-22T00:05:23;5.83;;;4.00;;
7375;SDS011;3728;42.266;24.944;2022-07-22T00:07:50;7.70;;;3.50;;
7375;SDS011;3728;42.266;24.944;2022-07-22T00:10:17;10.10;;;4.03;;
7375;SDS011;3728;42.266;24.944;2022-07-22T00:12:45;8.50;;;4.00;;
7375;SDS011;3728;42.266;24.944;2022-07-22T00:15:15;8.63;;;3.83;;
7375;SDS011;3728;42.266;24.944;2022-07-22T00:17:42;5.60;;;3.83;;
7375;SDS011;3728;42.266;24.944;2022-07-22T00:20:10;4.63;;;3.73;;
7375;SDS011;3728;42.266;24.944;2022-07-22T00:22:37;6.47;;;3.60;;
7375;SDS011;3728;42.266;24.944;2022-07-22T00:25:04;7.60;;;3.80;;
7375;SDS011;3728;42.266;24.944;2022-07-22T00:27:32;5.70;;;3.90;;
7375;SDS011;3728;42.266;24.944;2022-07-22T00:29:59;4.93;;;3.50;;
7375;SDS011;3728;42.266;24.944;2022-07-22T00:32:26;6.03;;;3.73;;
7375;SDS011;3728;42.266;24.944;2022-07-22T00:34:55;6.70;;;3.63;;
7375;SDS011;3728;42.266;24.944;2022-07-22T00:37:22;3.90;;;3.50;;
7375;SDS011;3728;42.266;24.944;2022-07-22T00:39:50;4.57;;;3.37;;
7375;SDS011;3728;42.266;24.944;2022-07-22T00:42:17;4.53;;;3.50;;
7375;SDS011;3728;42.266;24.944;2022-07-22T00:44:49;7.00;;;3.43;;
7375;SDS011;3728;42.266;24.944;2022-07-22T00:47:17;4.53;;;4.03;;
7375;SDS011;3728;42.266;24.944;2022-07-22T00:49:44;4.93;;;3.53;;
7375;SDS011;3728;42.266;24.944;2022-07-22T00:52:12;7.83;;;3.27;;
7375;SDS011;3728;42.266;24.944;2022-07-22T00:54:39;6.27;;;3.93;;
7375;SDS011;3728;42.266;24.944;2022-07-22T00:57:07;5.07;;;3.80;;
7375;SDS011;3728;42.266;24.944;2022-07-22T00:59:35;7.07;;;4.33;;
7375;SDS011;3728;42.266;24.944;2022-07-22T01:02:02;7.03;;;4.43;;
7375;SDS011;3728;42.266;24.944;2022-07-22T01:04:30;8.00;;;4.50;;
7375;SDS011;3728;42.266;24.944;2022-07-22T01:06:57;7.80;;;4.30;;
7375;SDS011;3728;42.266;24.944;2022-07-22T01:09:25;7.60;;;4.73;;
7375;SDS011;3728;42.266;24.944;2022-07-22T01:11:52;10.20;;;5.23;;
7375;SDS011;3728;42.266;24.944;2022-07-22T01:14:19;11.63;;;5.23;;
7375;SDS011;3728;42.266;24.944;2022-07-22T01:16:47;7.57;;;4.90;;
7375;SDS011;3728;42.266;24.944;2022-07-22T01:19:15;9.03;;;5.13;;
7375;SDS011;3728;42.266;24.944;2022-07-22T01:21:43;6.27;;;5.00;;
7375;SDS011;3728;42.266;24.944;2022-07-22T01:24:10;9.23;;;4.90;;
7375;SDS011;3728;42.266;24.944;2022-07-22T01:26:38;12.20;;;4.93;;
7375;SDS011;3728;42.266;24.944;2022-07-22T01:29:06;5.93;;;4.60;;
7375;SDS011;3728;42.266;24.944;2022-07-22T01:31:34;13.00;;;5.10;;
7375;SDS011;3728;42.266;24.944;2022-07-22T01:34:02;10.03;;;5.10;;
7375;SDS011;3728;42.266;24.944;2022-07-22T01:36:34;12.63;;;5.73;;
7375;SDS011;3728;42.266;24.944;2022-07-22T01:39:02;5.70;;;4.83;;
7375;SDS011;3728;42.266;24.944;2022-07-22T01:41:30;7.63;;;4.77;;
7375;SDS011;3728;42.266;24.944;2022-07-22T01:43:58;12.80;;;5.63;;
7375;SDS011;3728;42.266;24.944;2022-07-22T01:46:25;9.97;;;5.33;;
7375;SDS011;3728;42.266;24.944;2022-07-22T01:48:53;7.07;;;4.97;;
7375;SDS011;3728;42.266;24.944;2022-07-22T01:51:21;8.37;;;5.73;;
7375;SDS011;3728;42.266;24.944;2022-07-22T01:53:49;10.00;;;4.97;;
7375;SDS011;3728;42.266;24.944;2022-07-22T01:56:16;9.73;;;5.63;;
7375;SDS011;3728;42.266;24.944;2022-07-22T01:58:48;7.97;;;5.17;;
7375;SDS011;3728;42.266;24.944;2022-07-22T02:01:20;9.33;;;4.93;;
7375;SDS011;3728;42.266;24.944;2022-07-22T02:03:48;9.20;;;5.40;;
7375;SDS011;3728;42.266;24.944;2022-07-22T02:06:15;10.53;;;5.03;;
7375;SDS011;3728;42.266;24.944;2022-07-22T02:08:43;13.17;;;5.83;;
7375;SDS011;3728;42.266;24.944;2022-07-22T02:11:12;10.97;;;4.93;;
7375;SDS011;3728;42.266;24.944;2022-07-22T02:14:02;14.57;;;5.10;;
7375;SDS011;3728;42.266;24.944;2022-07-22T02:16:30;12.17;;;5.63;;
7375;SDS011;3728;42.266;24.944;2022-07-22T02:18:57;11.27;;;5.47;;
7375;SDS011;3728;42.266;24.944;2022-07-22T02:21:26;12.40;;;5.00;;
7375;SDS011;3728;42.266;24.944;2022-07-22T02:23:57;11.97;;;5.30;;
7375;SDS011;3728;42.266;24.944;2022-07-22T02:26:25;8.23;;;4.80;;
7375;SDS011;3728;42.266;24.944;2022-07-22T02:28:52;8.30;;;5.40;;
7375;SDS011;3728;42.266;24.944;2022-07-22T02:31:21;9.70;;;5.10;;
7375;SDS011;3728;42.266;24.944;2022-07-22T02:33:49;9.70;;;5.60;;
7375;SDS011;3728;42.266;24.944;2022-07-22T02:36:17;9.70;;;5.50;;
7375;SDS011;3728;42.266;24.944;2022-07-22T02:38:46;12.77;;;5.37;;
7375;SDS011;3728;42.266;24.944;2022-07-22T02:41:14;10.87;;;4.90;;
7375;SDS011;3728;42.266;24.944;2022-07-22T02:43:48;9.43;;;4.93;;
7375;SDS011;3728;42.266;24.944;2022-07-22T02:46:16;15.60;;;5.67;;
7375;SDS011;3728;42.266;24.944;2022-07-22T02:48:44;24.67;;;6.90;;
7375;SDS011;3728;42.266;24.944;2022-07-22T02:51:13;33.13;;;6.20;;
7375;SDS011;3728;42.266;24.944;2022-07-22T02:53:40;20.27;;;5.50;;
7375;SDS011;3728;42.266;24.944;2022-07-22T02:56:07;17.50;;;5.53;;
7375;SDS011;3728;42.266;24.944;2022-07-22T02:58:35;6.97;;;5.00;;
7375;SDS011;3728;42.266;24.944;2022-07-22T03:01:02;8.00;;;5.57;;
7375;SDS011;3728;42.266;24.944;2022-07-22T03:03:37;11.53;;;5.83;;
7375;SDS011;3728;42.266;24.944;2022-07-22T03:06:04;7.97;;;4.97;;
7375;SDS011;3728;42.266;24.944;2022-07-22T03:08:37;9.10;;;5.50;;
7375;SDS011;3728;42.266;24.944;2022-07-22T03:11:05;8.07;;;5.53;;
7375;SDS011;3728;42.266;24.944;2022-07-22T03:13:33;8.80;;;5.17;;
7375;SDS011;3728;42.266;24.944;2022-07-22T03:16:00;10.73;;;5.70;;
7375;SDS011;3728;42.266;24.944;2022-07-22T03:18:27;17.43;;;6.27;;
7375;SDS011;3728;42.266;24.944;2022-07-22T03:20:55;22.17;;;5.70;;
7375;SDS011;3728;42.266;24.944;2022-07-22T03:23:22;13.50;;;5.73;;
7375;SDS011;3728;42.266;24.944;2022-07-22T03:25:50;7.97;;;5.63;;
7375;SDS011;3728;42.266;24.944;2022-07-22T03:28:17;11.60;;;6.63;;
7375;SDS011;3728;42.266;24.944;2022-07-22T03:30:44;11.47;;;6.27;;
7375;SDS011;3728;42.266;24.944;2022-07-22T03:33:13;17.07;;;7.00;;
7375;SDS011;3728;42.266;24.944;2022-07-22T03:35:41;15.67;;;6.87;;
7375;SDS011;3728;42.266;24.944;2022-07-22T03:38:08;12.37;;;6.93;;
7375;SDS011;3728;42.266;24.944;2022-07-22T03:40:37;14.47;;;7.17;;
7375;SDS011;3728;42.266;24.944;2022-07-22T03:43:04;13.60;;;6.83;;
7375;SDS011;3728;42.266;24.944;2022-07-22T03:45:32;16.57;;;7.20;;
7375;SDS011;3728;42.266;24.944;2022-07-22T03:47:59;11.13;;;6.80;;
7375;SDS011;3728;42.266;24.944;2022-07-22T03:50:33;11.90;;;7.33;;
7375;SDS011;3728;42.266;24.944;2022-07-22T03:53:00;9.57;;;7.40;;
7375;SDS011;3728;42.266;24.944;2022-07-22T03:55:28;10.77;;;7.63;;
7375;SDS011;3728;42.266;24.944;2022-07-22T03:57:56;14.70;;;8.13;;
7375;SDS011;3728;42.266;24.944;2022-07-22T04:00:27;11.80;;;8.40;;
7375;SDS011;3728;42.266;24.944;2022-07-22T04:02:55;13.83;;;8.57;;
7375;SDS011;3728;42.266;24.944;2022-07-22T04:05:45;21.83;;;8.73;;
7375;SDS011;3728;42.266;24.944;2022-07-22T04:08:17;18.20;;;8.73;;
7375;SDS011;3728;42.266;24.944;2022-07-22T04:10:45;16.33;;;8.43;;
7375;SDS011;3728;42.266;24.944;2022-07-22T04:13:12;15.80;;;8.57;;
7375;SDS011;3728;42.266;24.944;2022-07-22T04:15:53;15.27;;;7.97;;
7375;SDS011;3728;42.266;24.944;2022-07-22T04:18:20;11.83;;;7.30;;
7375;SDS011;3728;42.266;24.944;2022-07-22T04:20:48;12.03;;;7.07;;
7375;SDS011;3728;42.266;24.944;2022-07-22T04:23:18;13.93;;;6.70;;
7375;SDS011;3728;42.266;24.944;2022-07-22T04:25:48;11.33;;;7.00;;
7375;SDS011;3728;42.266;24.944;2022-07-22T04:28:16;27.97;;;7.23;;
7375;SDS011;3728;42.266;24.944;2022-07-22T04:30:43;14.57;;;7.07;;
7375;SDS011;3728;42.266;24.944;2022-07-22T04:33:11;17.98;;;7.38;;
7375;SDS011;3728;42.266;24.944;2022-07-22T04:35:38;12.05;;;6.25;;
7375;SDS011;3728;42.266;24.944;2022-07-22T04:38:17;14.32;;;6.72;;
7375;SDS011;3728;42.266;24.944;2022-07-22T04:40:58;11.18;;;7.30;;
7375;SDS011;3728;42.266;24.944;2022-07-22T04:43:25;20.02;;;8.20;;
7375;SDS011;3728;42.266;24.944;2022-07-22T04:45:53;21.75;;;7.90;;
7375;SDS011;3728;42.266;24.944;2022-07-22T04:48:25;24.45;;;8.75;;
7375;SDS011;3728;42.266;24.944;2022-07-22T04:50:53;19.05;;;8.57;;
7375;SDS011;3728;42.266;24.944;2022-07-22T04:53:20;19.35;;;7.28;;
7375;SDS011;3728;42.266;24.944;2022-07-22T04:56:08;10.95;;;5.50;;
7375;SDS011;3728;42.266;24.944;2022-07-22T04:58:36;8.75;;;5.65;;
7375;SDS011;3728;42.266;24.944;2022-07-22T05:01:03;8.55;;;5.20;;
7375;SDS011;3728;42.266;24.944;2022-07-22T05:03:33;8.55;;;5.10;;
7375;SDS011;3728;42.266;24.944;2022-07-22T05:06:02;10.82;;;5.13;;
7375;SDS011;3728;42.266;24.944;2022-07-22T05:08:35;7.53;;;4.53;;
7375;SDS011;3728;42.266;24.944;2022-07-22T05:11:03;5.68;;;4.65;;
7375;SDS011;3728;42.266;24.944;2022-07-22T05:13:31;7.68;;;5.20;;
7375;SDS011;3728;42.266;24.944;2022-07-22T05:16:05;8.25;;;4.90;;
7375;SDS011;3728;42.266;24.944;2022-07-22T05:18:35;12.00;;;5.05;;
7375;SDS011;3728;42.266;24.944;2022-07-22T05:21:04;11.93;;;5.22;;
7375;SDS011;3728;42.266;24.944;2022-07-22T05:23:32;12.23;;;5.38;;
7375;SDS011;3728;42.266;24.944;2022-07-22T05:26:01;7.38;;;4.38;;
7375;SDS011;3728;42.266;24.944;2022-07-22T05:28:31;18.73;;;5.75;;
7375;SDS011;3728;42.266;24.944;2022-07-22T05:31:00;21.30;;;6.68;;
7375;SDS011;3728;42.266;24.944;2022-07-22T05:33:28;10.90;;;5.65;;
7375;SDS011;3728;42.266;24.944;2022-07-22T05:35:55;12.00;;;6.93;;
7375;SDS011;3728;42.266;24.944;2022-07-22T05:38:28;22.20;;;8.23;;
7375;SDS011;3728;42.266;24.944;2022-07-22T05:40:58;15.80;;;7.88;;
7375;SDS011;3728;42.266;24.944;2022-07-22T05:43:25;11.15;;;7.20;;
7375;SDS011;3728;42.266;24.944;2022-07-22T05:45:53;12.63;;;6.25;;
7375;SDS011;3728;42.266;24.944;2022-07-22T05:48:21;14.38;;;6.35;;
7375;SDS011;3728;42.266;24.944;2022-07-22T05:50:48;58.35;;;9.98;;
7375;SDS011;3728;42.266;24.944;2022-07-22T05:53:16;5.95;;;5.38;;
7375;SDS011;3728;42.266;24.944;2022-07-22T05:55:43;8.27;;;5.10;;
7375;SDS011;3728;42.266;24.944;2022-07-22T05:58:11;9.77;;;5.13;;
7375;SDS011;3728;42.266;24.944;2022-07-22T06:00:39;11.02;;;5.47;;
7375;SDS011;3728;42.266;24.944;2022-07-22T06:03:08;10.80;;;5.38;;
7375;SDS011;3728;42.266;24.944;2022-07-22T06:05:43;11.35;;;5.05;;
7375;SDS011;3728;42.266;24.944;2022-07-22T06:08:11;8.15;;;5.15;;
7375;SDS011;3728;42.266;24.944;2022-07-22T06:10:45;10.07;;;4.80;;
7375;SDS011;3728;42.266;24.944;2022-07-22T06:13:12;7.97;;;5.03;;
7375;SDS011;3728;42.266;24.944;2022-07-22T06:15:41;9.85;;;5.03;;
7375;SDS011;3728;42.266;24.944;2022-07-22T06:18:09;9.90;;;4.85;;
7375;SDS011;3728;42.266;24.944;2022-07-22T06:20:36;7.03;;;4.32;;
7375;SDS011;3728;42.266;24.944;2022-07-22T06:23:03;12.73;;;5.20;;
7375;SDS011;3728;42.266;24.944;2022-07-22T06:25:33;10.85;;;4.43;;
7375;SDS011;3728;42.266;24.944;2022-07-22T06:28:38;9.13;;;5.03;;
7375;SDS011;3728;42.266;24.944;2022-07-22T06:31:07;10.70;;;5.10;;
7375;SDS011;3728;42.266;24.944;2022-07-22T06:33:34;5.38;;;4.53;;
7375;SDS011;3728;42.266;24.944;2022-07-22T06:36:02;7.03;;;4.95;;
7375;SDS011;3728;42.266;24.944;2022-07-22T06:38:30;15.02;;;5.40;;
7375;SDS011;3728;42.266;24.944;2022-07-22T06:41:18;22.52;;;5.80;;
7375;SDS011;3728;42.266;24.944;2022-07-22T06:44:12;7.43;;;4.60;;
7375;SDS011;3728;42.266;24.944;2022-07-22T06:47:06;9.63;;;4.63;;
7375;SDS011;3728;42.266;24.944;2022-07-22T06:49:34;9.55;;;4.75;;
7375;SDS011;3728;42.266;24.944;2022-07-22T06:52:03;7.70;;;4.47;;
7375;SDS011;3728;42.266;24.944;2022-07-22T06:54:31;7.53;;;4.05;;
7375;SDS011;3728;42.266;24.944;2022-07-22T06:57:01;10.50;;;4.65;;
7375;SDS011;3728;42.266;24.944;2022-07-22T06:59:32;9.38;;;4.72;;
7375;SDS011;3728;42.266;24.944;2022-07-22T07:02:04;8.15;;;4.20;;
7375;SDS011;3728;42.266;24.944;2022-07-22T07:04:36;8.32;;;4.53;;
7375;SDS011;3728;42.266;24.944;2022-07-22T07:07:04;8.85;;;4.55;;
7375;SDS011;3728;42.266;24.944;2022-07-22T07:09:32;7.10;;;4.20;;
7375;SDS011;3728;42.266;24.944;2022-07-22T07:12:16;7.10;;;4.45;;
7375;SDS011;3728;42.266;24.944;2022-07-22T07:15:09;8.38;;;4.60;;
7375;SDS011;3728;42.266;24.944;2022-07-22T07:17:52;7.13;;;4.40;;
7375;SDS011;3728;42.266;24.944;2022-07-22T07:20:22;4.35;;;3.75;;
7375;SDS011;3728;42.266;24.944;2022-07-22T07:22:50;11.85;;;4.13;;
7375;SDS011;3728;42.266;24.944;2022-07-22T07:25:18;4.78;;;3.60;;
7375;SDS011;3728;42.266;24.944;2022-07-22T07:27:50;9.05;;;4.32;;
7375;SDS011;3728;42.266;24.944;2022-07-22T07:30:26;9.43;;;4.40;;
7375;SDS011;3728;42.266;24.944;2022-07-22T07:32:53;6.90;;;4.45;;
7375;SDS011;3728;42.266;24.944;2022-07-22T07:35:21;8.13;;;4.60;;
7375;SDS011;3728;42.266;24.944;2022-07-22T07:37:54;6.15;;;4.50;;
7375;SDS011;3728;42.266;24.944;2022-07-22T07:40:22;9.32;;;4.40;;
7375;SDS011;3728;42.266;24.944;2022-07-22T07:42:49;10.93;;;4.60;;
7375;SDS011;3728;42.266;24.944;2022-07-22T07:45:29;9.65;;;4.65;;
7375;SDS011;3728;42.266;24.944;2022-07-22T07:47:56;6.97;;;4.40;;
7375;SDS011;3728;42.266;24.944;2022-07-22T07:50:24;6.93;;;4.45;;
7375;SDS011;3728;42.266;24.944;2022-07-22T07:52:53;6.97;;;4.93;;
7375;SDS011;3728;42.266;24.944;2022-07-22T07:55:22;5.60;;;4.65;;
7375;SDS011;3728;42.266;24.944;2022-07-22T07:57:50;14.35;;;4.85;;
7375;SDS011;3728;42.266;24.944;2022-07-22T08:00:23;16.42;;;5.75;;
7375;SDS011;3728;42.266;24.944;2022-07-22T08:02:56;6.97;;;4.72;;
7375;SDS011;3728;42.266;24.944;2022-07-22T08:05:27;16.35;;;4.82;;
7375;SDS011;3728;42.266;24.944;2022-07-22T08:07:57;23.40;;;5.80;;
7375;SDS011;3728;42.266;24.944;2022-07-22T08:10:25;10.07;;;5.43;;
7375;SDS011;3728;42.266;24.944;2022-07-22T08:13:15;7.55;;;4.72;;
7375;SDS011;3728;42.266;24.944;2022-07-22T08:16:00;7.68;;;5.03;;
7375;SDS011;3728;42.266;24.944;2022-07-22T08:18:28;8.05;;;5.13;;
7375;SDS011;3728;42.266;24.944;2022-07-22T08:20:56;6.88;;;5.63;;
7375;SDS011;3728;42.266;24.944;2022-07-22T08:23:44;10.10;;;5.40;;
7375;SDS011;3728;42.266;24.944;2022-07-22T08:26:12;15.90;;;5.35;;
7375;SDS011;3728;42.266;24.944;2022-07-22T08:28:39;7.05;;;5.55;;
7375;SDS011;3728;42.266;24.944;2022-07-22T08:31:06;9.40;;;5.35;;
7375;SDS011;3728;42.266;24.944;2022-07-22T08:33:34;6.88;;;5.30;;
7375;SDS011;3728;42.266;24.944;2022-07-22T08:36:02;11.05;;;5.40;;
7375;SDS011;3728;42.266;24.944;2022-07-22T08:38:31;9.32;;;5.93;;
7375;SDS011;3728;42.266;24.944;2022-07-22T08:40:58;8.02;;;4.57;;
7375;SDS011;3728;42.266;24.944;2022-07-22T08:43:32;13.68;;;5.72;;
7375;SDS011;3728;42.266;24.944;2022-07-22T08:46:03;14.60;;;5.97;;
7375;SDS011;3728;42.266;24.944;2022-07-22T08:48:49;13.90;;;4.97;;
7375;SDS011;3728;42.266;24.944;2022-07-22T08:51:36;8.18;;;5.28;;
7375;SDS011;3728;42.266;24.944;2022-07-22T08:54:20;11.45;;;5.07;;
7375;SDS011;3728;42.266;24.944;2022-07-22T08:56:48;6.93;;;4.47;;
7375;SDS011;3728;42.266;24.944;2022-07-22T08:59:17;12.90;;;5.05;;
7375;SDS011;3728;42.266;24.944;2022-07-22T09:04:58;10.27;;;4.85;;
7375;SDS011;3728;42.266;24.944;2022-07-22T09:07:48;8.90;;;4.38;;
7375;SDS011;3728;42.266;24.944;2022-07-22T09:10:32;6.90;;;4.60;;
7375;SDS011;3728;42.266;24.944;2022-07-22T09:13:20;9.13;;;4.32;;
7375;SDS011;3728;42.266;24.944;2022-07-22T09:15:53;9.23;;;4.80;;
7375;SDS011;3728;42.266;24.944;2022-07-22T09:21:37;10.88;;;4.93;;
7375;SDS011;3728;42.266;24.944;2022-07-22T09:24:09;18.77;;;4.82;;
7375;SDS011;3728;42.266;24.944;2022-07-22T09:27:26;37.05;;;6.20;;
7375;SDS011;3728;42.266;24.944;2022-07-22T09:30:27;13.82;;;4.68;;
7375;SDS011;3728;42.266;24.944;2022-07-22T09:33:06;17.65;;;5.18;;
7375;SDS011;3728;42.266;24.944;2022-07-22T09:35:40;7.20;;;4.75;;
7375;SDS011;3728;42.266;24.944;2022-07-22T09:38:15;9.73;;;4.28;;
7375;SDS011;3728;42.266;24.944;2022-07-22T09:40:47;10.40;;;4.35;;
7375;SDS011;3728;42.266;24.944;2022-07-22T09:43:16;13.75;;;4.80;;
7375;SDS011;3728;42.266;24.944;2022-07-22T09:45:47;20.60;;;5.30;;
7375;SDS011;3728;42.266;24.944;2022-07-22T09:48:16;9.15;;;4.22;;
7375;SDS011;3728;42.266;24.944;2022-07-22T09:50:54;8.00;;;4.25;;
7375;SDS011;3728;42.266;24.944;2022-07-22T09:53:33;9.98;;;4.90;;
7375;SDS011;3728;42.266;24.944;2022-07-22T09:56:07;7.78;;;4.35;;
7375;SDS011;3728;42.266;24.944;2022-07-22T09:58:35;6.70;;;4.22;;
7375;SDS011;3728;42.266;24.944;2022-07-22T10:01:10;4.50;;;4.03;;
7375;SDS011;3728;42.266;24.944;2022-07-22T10:03:38;8.13;;;3.80;;
7375;SDS011;3728;42.266;24.944;2022-07-22T10:06:08;6.60;;;3.80;;
7375;SDS011;3728;42.266;24.944;2022-07-22T10:08:37;7.18;;;3.67;;
7375;SDS011;3728;42.266;24.944;2022-07-22T10:11:06;8.10;;;4.20;;
7375;SDS011;3728;42.266;24.944;2022-07-22T10:13:37;8.55;;;4.32;;
7375;SDS011;3728;42.266;24.944;2022-07-22T10:16:09;8.00;;;3.83;;
7375;SDS011;3728;42.266;24.944;2022-07-22T10:18:37;8.65;;;3.70;;
7375;SDS011;3728;42.266;24.944;2022-07-22T10:21:06;10.05;;;4.15;;
7375;SDS011;3728;42.266;24.944;2022-07-22T10:34:43;9.75;;;3.92;;
7375;SDS011;3728;42.266;24.944;2022-07-22T10:40:14;5.03;;;3.65;;
7375;SDS011;3728;42.266;24.944;2022-07-22T10:45:40;14.95;;;4.80;;
7375;SDS011;3728;42.266;24.944;2022-07-22T10:50:46;5.47;;;3.65;;
7375;SDS011;3728;42.266;24.944;2022-07-22T10:59:11;5.38;;;3.83;;
7375;SDS011;3728;42.266;24.944;2022-07-22T11:01:45;11.73;;;4.18;;
7375;SDS011;3728;42.266;24.944;2022-07-22T11:04:15;9.35;;;3.85;;
7375;SDS011;3728;42.266;24.944;2022-07-22T11:06:48;7.45;;;3.72;;
7375;SDS011;3728;42.266;24.944;2022-07-22T11:09:20;6.20;;;3.70;;
7375;SDS011;3728;42.266;24.944;2022-07-22T11:11:58;6.68;;;3.67;;
7375;SDS011;3728;42.266;24.944;2022-07-22T11:14:33;11.88;;;4.75;;
7375;SDS011;3728;42.266;24.944;2022-07-22T11:17:09;6.13;;;3.47;;
7375;SDS011;3728;42.266;24.944;2022-07-22T11:19:39;9.55;;;3.60;;
7375;SDS011;3728;42.266;24.944;2022-07-22T11:22:08;8.00;;;3.50;;
7375;SDS011;3728;42.266;24.944;2022-07-22T11:24:37;11.93;;;4.32;;
7375;SDS011;3728;42.266;24.944;2022-07-22T11:27:09;9.55;;;4.10;;
7375;SDS011;3728;42.266;24.944;2022-07-22T11:29:41;5.70;;;3.60;;
7375;SDS011;3728;42.266;24.944;2022-07-22T11:32:13;41.25;;;7.20;;
7375;SDS011;3728;42.266;24.944;2022-07-22T11:34:44;131.77;;;15.40;;
7375;SDS011;3728;42.266;24.944;2022-07-22T11:37:19;16.10;;;4.55;;
7375;SDS011;3728;42.266;24.944;2022-07-22T11:39:51;7.40;;;3.58;;
7375;SDS011;3728;42.266;24.944;2022-07-22T11:42:25;10.80;;;3.92;;
7375;SDS011;3728;42.266;24.944;2022-07-22T11:44:54;6.55;;;3.30;;
7375;SDS011;3728;42.266;24.944;2022-07-22T11:47:21;11.98;;;3.72;;
7375;SDS011;3728;42.266;24.944;2022-07-22T11:49:49;12.10;;;3.88;;
7375;SDS011;3728;42.266;24.944;2022-07-22T11:52:16;7.20;;;3.50;;
7375;SDS011;3728;42.266;24.944;2022-07-22T11:54:46;6.13;;;3.22;;
7375;SDS011;3728;42.266;24.944;2022-07-22T11:57:14;8.70;;;4.05;;
7375;SDS011;3728;42.266;24.944;2022-07-22T11:59:41;5.93;;;3.45;;
7375;SDS011;3728;42.266;24.944;2022-07-22T12:02:10;9.45;;;3.95;;
7375;SDS011;3728;42.266;24.944;2022-07-22T12:04:40;5.35;;;3.42;;
7375;SDS011;3728;42.266;24.944;2022-07-22T12:07:09;107.75;;;13.50;;
7375;SDS011;3728;42.266;24.944;2022-07-22T12:09:38;6.50;;;3.28;;
7375;SDS011;3728;42.266;24.944;2022-07-22T12:12:08;6.32;;;2.97;;
7375;SDS011;3728;42.266;24.944;2022-07-22T12:14:43;14.57;;;3.80;;
7375;SDS011;3728;42.266;24.944;2022-07-22T12:17:15;7.43;;;3.60;;
7375;SDS011;3728;42.266;24.944;2022-07-22T12:19:43;9.15;;;3.65;;
7375;SDS011;3728;42.266;24.944;2022-07-22T12:22:11;34.58;;;7.30;;
7375;SDS011;3728;42.266;24.944;2022-07-22T12:24:44;39.65;;;6.50;;
7375;SDS011;3728;42.266;24.944;2022-07-22T12:27:13;4.55;;;3.10;;
7375;SDS011;3728;42.266;24.944;2022-07-22T12:29:43;3.97;;;3.03;;
7375;SDS011;3728;42.266;24.944;2022-07-22T12:37:21;5.82;;;3.20;;
7375;SDS011;3728;42.266;24.944;2022-07-22T12:43:02;16.65;;;4.97;;
7375;SDS011;3728;42.266;24.944;2022-07-22T12:45:35;8.77;;;3.20;;
7375;SDS011;3728;42.266;24.944;2022-07-22T12:50:31;9.35;;;3.40;;
7375;SDS011;3728;42.266;24.944;2022-07-22T12:53:02;4.22;;;3.25;;
7375;SDS011;3728;42.266;24.944;2022-07-22T12:55:45;17.17;;;4.05;;
7375;SDS011;3728;42.266;24.944;2022-07-22T12:58:13;7.15;;;3.28;;
7375;SDS011;3728;42.266;24.944;2022-07-22T13:00:47;6.65;;;3.10;;
7375;SDS011;3728;42.266;24.944;2022-07-22T13:03:30;4.80;;;3.10;;
7375;SDS011;3728;42.266;24.944;2022-07-22T13:06:00;27.30;;;4.65;;
7375;SDS011;3728;42.266;24.944;2022-07-22T13:08:33;4.32;;;3.53;;
7375;SDS011;3728;42.266;24.944;2022-07-22T13:11:13;4.18;;;2.92;;
7375;SDS011;3728;42.266;24.944;2022-07-22T13:13:41;4.05;;;2.80;;
7375;SDS011;3728;42.266;24.944;2022-07-22T13:16:12;4.80;;;2.90;;
7375;SDS011;3728;42.266;24.944;2022-07-22T13:18:40;4.50;;;2.80;;
7375;SDS011;3728;42.266;24.944;2022-07-22T13:21:07;34.42;;;6.45;;
7375;SDS011;3728;42.266;24.944;2022-07-22T13:23:34;5.78;;;3.22;;
7375;SDS011;3728;42.266;24.944;2022-07-22T13:26:02;6.57;;;3.38;;
7375;SDS011;3728;42.266;24.944;2022-07-22T13:28:29;5.38;;;3.17;;
7375;SDS011;3728;42.266;24.944;2022-07-22T13:30:56;9.60;;;3.08;;
7375;SDS011;3728;42.266;24.944;2022-07-22T13:33:24;7.45;;;3.40;;
7375;SDS011;3728;42.266;24.944;2022-07-22T13:35:51;5.45;;;3.75;;
7375;SDS011;3728;42.266;24.944;2022-07-22T13:38:18;4.60;;;2.92;;
7375;SDS011;3728;42.266;24.944;2022-07-22T13:40:45;3.35;;;3.05;;
7375;SDS011;3728;42.266;24.944;2022-07-22T13:43:18;6.68;;;2.85;;
7375;SDS011;3728;42.266;24.944;2022-07-22T13:45:49;3.78;;;3.20;;
7375;SDS011;3728;42.266;24.944;2022-07-22T13:48:18;5.88;;;2.92;;
7375;SDS011;3728;42.266;24.944;2022-07-22T13:50:47;8.63;;;3.15;;
7375;SDS011;3728;42.266;24.944;2022-07-22T13:53:15;11.10;;;3.70;;
7375;SDS011;3728;42.266;24.944;2022-07-22T13:55:42;4.32;;;3.10;;
7375;SDS011;3728;42.266;24.944;2022-07-22T13:58:10;11.82;;;4.10;;
7375;SDS011;3728;42.266;24.944;2022-07-22T14:00:37;8.05;;;3.42;;
7375;SDS011;3728;42.266;24.944;2022-07-22T14:03:07;5.28;;;3.00;;
7375;SDS011;3728;42.266;24.944;2022-07-22T14:05:34;4.30;;;3.03;;
7375;SDS011;3728;42.266;24.944;2022-07-22T14:08:02;7.07;;;2.92;;
7375;SDS011;3728;42.266;24.944;2022-07-22T14:10:31;5.38;;;2.95;;
7375;SDS011;3728;42.266;24.944;2022-07-22T14:13:00;6.47;;;2.97;;
7375;SDS011;3728;42.266;24.944;2022-07-22T14:15:27;9.02;;;3.83;;
7375;SDS011;3728;42.266;24.944;2022-07-22T14:17:56;8.55;;;2.80;;
7375;SDS011;3728;42.266;24.944;2022-07-22T14:20:23;4.10;;;2.97;;
7375;SDS011;3728;42.266;24.944;2022-07-22T14:22:51;4.85;;;3.20;;
7375;SDS011;3728;42.266;24.944;2022-07-22T14:25:18;4.78;;;3.15;;
7375;SDS011;3728;42.266;24.944;2022-07-22T14:27:46;12.70;;;3.70;;
7375;SDS011;3728;42.266;24.944;2022-07-22T14:30:15;12.88;;;3.67;;
7375;SDS011;3728;42.266;24.944;2022-07-22T14:32:43;8.38;;;3.08;;
7375;SDS011;3728;42.266;24.944;2022-07-22T14:35:10;18.23;;;5.03;;
7375;SDS011;3728;42.266;24.944;2022-07-22T14:37:38;6.60;;;3.40;;
7375;SDS011;3728;42.266;24.944;2022-07-22T14:40:05;11.93;;;3.83;;
7375;SDS011;3728;42.266;24.944;2022-07-22T14:42:34;6.07;;;3.28;;
7375;SDS011;3728;42.266;24.944;2022-07-22T14:45:02;5.28;;;2.88;;
7375;SDS011;3728;42.266;24.944;2022-07-22T14:47:35;7.53;;;3.03;;
7375;SDS011;3728;42.266;24.944;2022-07-22T14:50:04;4.43;;;2.88;;
7375;SDS011;3728;42.266;24.944;2022-07-22T14:52:32;14.30;;;3.85;;
7375;SDS011;3728;42.266;24.944;2022-07-22T14:55:00;15.40;;;4.03;;
7375;SDS011;3728;42.266;24.944;2022-07-22T14:57:27;28.30;;;5.18;;
7375;SDS011;3728;42.266;24.944;2022-07-22T14:59:54;48.35;;;6.28;;
7375;SDS011;3728;42.266;24.944;2022-07-22T15:02:21;22.85;;;3.90;;
7375;SDS011;3728;42.266;24.944;2022-07-22T15:04:51;13.95;;;3.53;;
7375;SDS011;3728;42.266;24.944;2022-07-22T15:07:18;9.50;;;3.17;;
7375;SDS011;3728;42.266;24.944;2022-07-22T15:09:52;11.20;;;4.13;;
7375;SDS011;3728;42.266;24.944;2022-07-22T15:12:19;13.98;;;3.42;;
7375;SDS011;3728;42.266;24.944;2022-07-22T15:15:07;10.68;;;3.10;;
7375;SDS011;3728;42.266;24.944;2022-07-22T15:17:35;4.57;;;2.72;;
7375;SDS011;3728;42.266;24.944;2022-07-22T15:20:04;16.05;;;3.67;;
7375;SDS011;3728;42.266;24.944;2022-07-22T15:22:33;17.10;;;4.47;;
7375;SDS011;3728;42.266;24.944;2022-07-22T15:25:00;7.32;;;3.17;;
7375;SDS011;3728;42.266;24.944;2022-07-22T15:27:27;4.63;;;2.70;;
7375;SDS011;3728;42.266;24.944;2022-07-22T15:29:55;8.93;;;3.08;;
7375;SDS011;3728;42.266;24.944;2022-07-22T15:32:22;10.23;;;3.72;;
7375;SDS011;3728;42.266;24.944;2022-07-22T15:34:52;5.28;;;2.42;;
7375;SDS011;3728;42.266;24.944;2022-07-22T15:37:19;6.90;;;2.55;;
7375;SDS011;3728;42.266;24.944;2022-07-22T15:39:50;7.72;;;2.95;;
7375;SDS011;3728;42.266;24.944;2022-07-22T15:42:17;11.65;;;3.38;;
7375;SDS011;3728;42.266;24.944;2022-07-22T15:44:44;10.57;;;2.90;;
7375;SDS011;3728;42.266;24.944;2022-07-22T15:47:12;8.32;;;2.90;;
7375;SDS011;3728;42.266;24.944;2022-07-22T15:49:39;7.88;;;2.53;;
7375;SDS011;3728;42.266;24.944;2022-07-22T15:52:18;8.25;;;2.78;;
7375;SDS011;3728;42.266;24.944;2022-07-22T15:54:48;6.57;;;2.50;;
7375;SDS011;3728;42.266;24.944;2022-07-22T15:57:16;4.93;;;2.55;;